Map

Track Data

SID SEASON NUMBER BASIN SUBBASIN NAME ISO_TIME NATURE LAT LON WMO_WIND WMO_PRES WMO_AGENCY TRACK_TYPE DIST2LAND LANDFALL IFLAG USA_AGENCY USA_ATCF_ID USA_LAT USA_LON USA_RECORD USA_STATUS USA_WIND USA_PRES USA_SSHS USA_R34_NE USA_R34_SE USA_R34_SW USA_R34_NW USA_R50_NE USA_R50_SE USA_R50_SW USA_R50_NW USA_R64_NE USA_R64_SE USA_R64_SW USA_R64_NW USA_POCI USA_ROCI USA_RMW USA_EYE TOKYO_LAT TOKYO_LON TOKYO_GRADE TOKYO_WIND TOKYO_PRES TOKYO_R50_DIR TOKYO_R50_LONG TOKYO_R50_SHORT TOKYO_R30_DIR TOKYO_R30_LONG TOKYO_R30_SHORT TOKYO_LAND CMA_LAT CMA_LON CMA_CAT CMA_WIND CMA_PRES HKO_LAT HKO_LON HKO_CAT HKO_WIND HKO_PRES NEWDELHI_LAT NEWDELHI_LON NEWDELHI_GRADE NEWDELHI_WIND NEWDELHI_PRES NEWDELHI_CI NEWDELHI_DP NEWDELHI_POCI REUNION_LAT REUNION_LON REUNION_TYPE REUNION_WIND REUNION_PRES REUNION_TNUM REUNION_CI REUNION_RMW REUNION_R34_NE REUNION_R34_SE REUNION_R34_SW REUNION_R34_NW REUNION_R50_NE REUNION_R50_SE REUNION_R50_SW REUNION_R50_NW REUNION_R64_NE REUNION_R64_SE REUNION_R64_SW REUNION_R64_NW BOM_LAT BOM_LON BOM_TYPE BOM_WIND BOM_PRES BOM_TNUM BOM_CI BOM_RMW BOM_R34_NE BOM_R34_SE BOM_R34_SW BOM_R34_NW BOM_R50_NE BOM_R50_SE BOM_R50_SW BOM_R50_NW BOM_R64_NE BOM_R64_SE BOM_R64_SW BOM_R64_NW BOM_ROCI BOM_POCI BOM_EYE BOM_POS_METHOD BOM_PRES_METHOD NADI_LAT NADI_LON NADI_CAT NADI_WIND NADI_PRES WELLINGTON_LAT WELLINGTON_LON WELLINGTON_WIND WELLINGTON_PRES DS824_LAT DS824_LON DS824_STAGE DS824_WIND DS824_PRES TD9636_LAT TD9636_LON TD9636_STAGE TD9636_WIND TD9636_PRES TD9635_LAT TD9635_LON TD9635_WIND TD9635_PRES TD9635_ROCI NEUMANN_LAT NEUMANN_LON NEUMANN_CLASS NEUMANN_WIND NEUMANN_PRES MLC_LAT MLC_LON MLC_CLASS MLC_WIND MLC_PRES USA_GUST BOM_GUST BOM_GUST_PER REUNION_GUST REUNION_GUST_PER USA_SEAHGT USA_SEARAD_NE USA_SEARAD_SE USA_SEARAD_SW USA_SEARAD_NW STORM_SPEED STORM_DIR
1931306N18277 1931 52 NA CS NOT_NAMED 1931-11-01 12:00:00 TS 17.5000 -83.5000 30 hurdat_atl main 208 204 O_____________ hurdat_atl AL111931 17.5000 -83.5000 TD 30 -1 3 289
1931306N18277 1931 52 NA CS NOT_NAMED 1931-11-01 15:00:00 TS 17.5500 -83.6475 main 214 208 P_____________ AL111931 17.5500 -83.6475 TD 30 -1 3 289
1931306N18277 1931 52 NA CS NOT_NAMED 1931-11-01 18:00:00 TS 17.6000 -83.8000 30 hurdat_atl main 208 205 O_____________ hurdat_atl AL111931 17.6000 -83.8000 TD 30 -1 3 289
1931306N18277 1931 52 NA CS NOT_NAMED 1931-11-01 21:00:00 TS 17.6500 -83.9575 main 214 211 P_____________ AL111931 17.6500 -83.9575 TD 32 -1 3 289
1931306N18277 1931 52 NA CS NOT_NAMED 1931-11-02 00:00:00 TS 17.7000 -84.1000 35 hurdat_atl main 211 208 O_____________ hurdat_atl AL111931 17.7000 -84.1000 TS 35 0 3 291
1931306N18277 1931 52 NA CS NOT_NAMED 1931-11-02 03:00:00 TS 17.7425 -84.2075 main 208 208 P_____________ AL111931 17.7425 -84.2075 TS 37 0 2 298
1931306N18277 1931 52 NA CS NOT_NAMED 1931-11-02 06:00:00 TS 17.8000 -84.3000 40 hurdat_atl main 216 215 O_____________ hurdat_atl AL111931 17.8000 -84.3000 TS 40 0 2 307
1931306N18277 1931 52 NA CS NOT_NAMED 1931-11-02 09:00:00 TS 17.8925 -84.4150 main 226 224 P_____________ AL111931 17.8925 -84.4150 TS 42 0 3 316
1931306N18277 1931 52 NA CS NOT_NAMED 1931-11-02 12:00:00 TS 18.0000 -84.5000 45 hurdat_atl main 235 235 O_____________ hurdat_atl AL111931 18.0000 -84.5000 TS 45 0 2 333
1931306N18277 1931 52 NA CS NOT_NAMED 1931-11-02 15:00:00 TS 18.1075 -84.5225 main 247 247 P_____________ AL111931 18.1075 -84.5225 TS 47 0 2 8
1931306N18277 1931 52 NA CS NOT_NAMED 1931-11-02 18:00:00 TS 18.2000 -84.5000 50 hurdat_atl main 258 258 O_____________ hurdat_atl AL111931 18.2000 -84.5000 TS 50 0 2 19
1931306N18277 1931 52 NA CS NOT_NAMED 1931-11-02 21:00:00 TS 18.2575 -84.4650 main 269 269 P_____________ AL111931 18.2575 -84.4650 TS 50 0 1 43
1931306N18277 1931 52 NA CS NOT_NAMED 1931-11-03 00:00:00 TS 18.3000 -84.4000 50 hurdat_atl main 270 270 O_____________ hurdat_atl AL111931 18.3000 -84.4000 TS 50 0 2 58
1931306N18277 1931 52 NA CS NOT_NAMED 1931-11-03 03:00:00 TS 18.3500 -84.3075 main 282 282 P_____________ AL111931 18.3500 -84.3075 TS 50 0 2 62
1931306N18277 1931 52 NA CS NOT_NAMED 1931-11-03 06:00:00 TS 18.4000 -84.2000 50 hurdat_atl main 284 284 O_____________ hurdat_atl AL111931 18.4000 -84.2000 TS 50 0 2 62
1931306N18277 1931 52 NA CS NOT_NAMED 1931-11-03 09:00:00 TS 18.4650 -84.0775 main 297 297 P_____________ AL111931 18.4650 -84.0775 TS 50 0 2 62
1931306N18277 1931 52 NA CS NOT_NAMED 1931-11-03 12:00:00 TS 18.5000 -84.0000 50 hurdat_atl main 300 300 O_____________ hurdat_atl AL111931 18.5000 -84.0000 TS 50 0 1 82
1931306N18277 1931 52 NA CS NOT_NAMED 1931-11-03 15:00:00 TS 18.4725 -84.0200 main 300 286 P_____________ AL111931 18.4725 -84.0200 TS 50 0 1 223
1931306N18277 1931 52 NA CS NOT_NAMED 1931-11-03 18:00:00 TS 18.4000 -84.1000 50 hurdat_atl main 286 273 O_____________ hurdat_atl AL111931 18.4000 -84.1000 TS 50 0 2 225
1931306N18277 1931 52 NA CS NOT_NAMED 1931-11-03 21:00:00 TS 18.3150 -84.1850 main 273 260 P_____________ AL111931 18.3150 -84.1850 TS 50 0 3 224
1931306N18277 1931 52 NA CS NOT_NAMED 1931-11-04 00:00:00 TS 18.2000 -84.3000 50 hurdat_atl main 260 248 O_____________ hurdat_atl AL111931 18.2000 -84.3000 TS 50 0 3 224
1931306N18277 1931 52 NA CS NOT_NAMED 1931-11-04 03:00:00 TS 18.0650 -84.4350 main 248 224 P_____________ AL111931 18.0650 -84.4350 TS 47 0 4 223
1931306N18277 1931 52 NA CS NOT_NAMED 1931-11-04 06:00:00 TS 17.9000 -84.6000 45 hurdat_atl main 224 201 O_____________ hurdat_atl AL111931 17.9000 -84.6000 TS 45 0 5 224
1931306N18277 1931 52 NA CS NOT_NAMED 1931-11-04 09:00:00 TS 17.6776 -84.8226 main 201 179 P_____________ AL111931 17.6776 -84.8226 TS 42 0 6 224
1931306N18277 1931 52 NA CS NOT_NAMED 1931-11-04 12:00:00 TS 17.5000 -85.0000 40 hurdat_atl main 179 179 O_____________ hurdat_atl AL111931 17.5000 -85.0000 TS 40 0 3 226
1931306N18277 1931 52 NA CS NOT_NAMED 1931-11-04 15:00:00 TS 17.4624 -85.0524 main 179 179 P_____________ AL111931 17.4624 -85.0524 TS 37 0 0 0
1931306N18277 1931 52 NA CS NOT_NAMED 1931-11-04 18:00:00 TS 17.5000 -85.0000 35 hurdat_atl main 179 179 O_____________ hurdat_atl AL111931 17.5000 -85.0000 TS 35 0 2 67
1931306N18277 1931 52 NA CS NOT_NAMED 1931-11-04 21:00:00 TS 17.5350 -84.8725 main 179 179 P_____________ AL111931 17.5350 -84.8725 TS 35 0 3 71
1931306N18277 1931 52 NA CS NOT_NAMED 1931-11-05 00:00:00 TS 17.6000 -84.7000 35 hurdat_atl main 190 190 O_____________ hurdat_atl AL111931 17.6000 -84.7000 TS 35 0 3 62
1931306N18277 1931 52 NA CS NOT_NAMED 1931-11-05 03:00:00 TS 17.6925 -84.5575 main 201 201 P_____________ AL111931 17.6925 -84.5575 TS 32 -1 3 55
1931306N18277 1931 52 NA CS NOT_NAMED 1931-11-05 06:00:00 TS 17.8000 -84.4000 30 hurdat_atl main 215 215 O_____________ hurdat_atl AL111931 17.8000 -84.4000 TD 30 -1 4 59
1931306N18277 1931 52 NA CS NOT_NAMED 1931-11-05 09:00:00 TS 17.9000 -84.2000 main 230 230 P_____________ AL111931 17.9000 -84.2000 TD 30 -1 4 62
1931306N18277 1931 52 NA CS NOT_NAMED 1931-11-05 12:00:00 TS 18.0000 -84.0000 30 hurdat_atl main 246 246 O_____________ hurdat_atl AL111931 18.0000 -84.0000 TD 30 -1 4 60
1931306N18277 1931 52 NA CS NOT_NAMED 1931-11-05 15:00:00 TS 18.1000 -83.8375 main 262 262 P_____________ AL111931 18.1000 -83.8375 TD 27 -1 3 55
1931306N18277 1931 52 NA CS NOT_NAMED 1931-11-05 18:00:00 TS 18.2000 -83.7000 25 hurdat_atl main 276 O_____________ hurdat_atl AL111931 18.2000 -83.7000 TD 25 -1 3 52

About IBTrACS Database

This database is a web-friendly format of International Best Track Archive for Climate Stewardship (IBTrACS), a global best track data archive curated by NOAA dating back to 1842.

Updated: 2021-10-25